Time,TemperatureF,DewpointF,PressureIn,WindDirection,WindDirectionDegrees,WindSpeedMPH,WindSpeedGustMPH,Humidity,HourlyPrecipIn,Conditions,Clouds,dailyrainin,SoftwareType,DateUTC
2013-09-23 06:34:00,46.9,39.0,29.72,SE,138,0.0,0.0,74,0.00,,,0.30,meteobridge,2013-09-23 12:34:00,
2013-09-23 06:35:00,46.9,39.0,29.71,SE,137,0.0,0.0,74,0.00,,,0.30,meteobridge,2013-09-23 12:35:00,
2013-09-23 06:36:00,46.8,38.8,29.71,SE,138,0.0,0.0,74,0.00,,,0.30,meteobridge,2013-09-23 12:36:00,
2013-09-23 06:41:00,46.6,39.0,29.72,SE,137,0.0,0.9,75,0.00,,,0.30,meteobridge,2013-09-23 12:41:00,
2013-09-23 06:46:00,46.2,39.0,29.72,SE,137,0.0,0.9,76,0.00,,,0.30,meteobridge,2013-09-23 12:46:00,
2013-09-23 06:52:00,46.2,39.0,29.72,SE,137,0.0,0.9,76,0.00,,,0.30,meteobridge,2013-09-23 12:52:00,
2013-09-23 06:57:00,46.4,38.8,29.72,SE,133,0.0,0.9,75,0.00,,,0.30,meteobridge,2013-09-23 12:57:00,
2013-09-23 07:02:00,46.2,39.4,29.73,SE,132,0.0,0.0,77,0.00,,,0.30,meteobridge,2013-09-23 13:02:00,
2013-09-23 07:07:00,46.0,39.6,29.73,SE,133,0.0,0.0,78,0.00,,,0.30,meteobridge,2013-09-23 13:07:00,
2013-09-23 07:12:00,45.7,39.9,29.73,SE,133,0.0,0.0,80,0.00,,,0.30,meteobridge,2013-09-23 13:12:00,
2013-09-23 07:17:00,45.3,39.9,29.73,SE,133,0.0,0.0,81,0.00,,,0.30,meteobridge,2013-09-23 13:17:00,
2013-09-23 07:22:00,45.3,39.9,29.73,SE,133,0.0,0.0,81,0.00,,,0.30,meteobridge,2013-09-23 13:22:00,
2013-09-23 07:27:00,45.7,40.1,29.74,SE,132,0.0,0.0,81,0.00,,,0.30,meteobridge,2013-09-23 13:27:00,
2013-09-23 07:32:00,46.6,40.8,29.74,SE,132,0.0,0.0,80,0.00,,,0.30,meteobridge,2013-09-23 13:32:00,
2013-09-23 07:37:00,46.9,40.8,29.74,SE,133,0.0,0.0,79,0.00,,,0.30,meteobridge,2013-09-23 13:37:00,
2013-09-23 07:43:00,47.8,41.0,29.74,SE,132,0.0,0.0,77,0.00,,,0.30,meteobridge,2013-09-23 13:43:00,
2013-09-23 07:48:00,48.7,40.8,29.74,SE,132,0.0,0.0,74,0.00,,,0.30,meteobridge,2013-09-23 13:48:00,
2013-09-23 07:53:00,49.6,39.9,29.74,SE,133,2.9,2.9,69,0.00,,,0.30,meteobridge,2013-09-23 13:53:00,
2013-09-23 07:58:00,50.5,40.5,29.74,SE,134,0.9,2.0,68,0.00,,,0.30,meteobridge,2013-09-23 13:58:00,
2013-09-23 08:03:00,51.3,39.9,29.74,SSE,154,0.9,2.0,65,0.00,,,0.30,meteobridge,2013-09-23 14:03:00,
2013-09-23 08:08:00,52.0,39.7,29.75,SSE,154,0.0,2.0,63,0.00,,,0.30,meteobridge,2013-09-23 14:08:00,
2013-09-23 08:13:00,52.5,39.9,29.75,SSE,154,2.0,2.0,62,0.00,,,0.30,meteobridge,2013-09-23 14:13:00,
2013-09-23 08:18:00,53.2,39.2,29.75,South,181,0.0,2.0,59,0.00,,,0.30,meteobridge,2013-09-23 14:18:00,
2013-09-23 08:24:00,53.8,37.9,29.75,SSW,194,0.0,2.0,55,0.00,,,0.30,meteobridge,2013-09-23 14:24:00,
2013-09-23 08:29:00,54.0,37.2,29.76,SSE,167,0.0,0.9,53,0.00,,,0.30,meteobridge,2013-09-23 14:29:00,
2013-09-23 08:34:00,54.7,38.8,29.76,SSE,167,0.0,0.9,55,0.00,,,0.30,meteobridge,2013-09-23 14:34:00,
2013-09-23 08:39:00,55.0,37.8,29.77,SSW,194,0.0,0.9,52,0.00,,,0.30,meteobridge,2013-09-23 14:39:00,
2013-09-23 08:44:00,55.9,36.5,29.77,West,274,0.0,0.9,48,0.00,,,0.30,meteobridge,2013-09-23 14:44:00,
2013-09-23 08:49:00,56.1,36.1,29.77,South,191,0.9,2.9,47,0.00,,,0.30,meteobridge,2013-09-23 14:49:00,
2013-09-23 08:54:00,56.1,35.6,29.77,South,182,2.0,2.0,46,0.00,,,0.30,meteobridge,2013-09-23 14:54:00,
2013-09-23 08:59:00,56.1,34.5,29.77,South,182,0.0,0.0,44,0.00,,,0.30,meteobridge,2013-09-23 14:59:00,
2013-09-23 09:05:00,56.7,36.7,29.78,South,186,0.0,0.0,47,0.00,,,0.30,meteobridge,2013-09-23 15:05:00,
2013-09-23 09:10:00,56.8,37.4,29.78,SW,221,0.0,4.0,48,0.00,,,0.30,meteobridge,2013-09-23 15:10:00,
2013-09-23 09:15:00,56.8,37.4,29.78,WSW,254,0.0,2.9,48,0.00,,,0.30,meteobridge,2013-09-23 15:15:00,
2013-09-23 09:20:00,57.4,37.9,29.78,WSW,249,0.0,2.0,48,0.00,,,0.30,meteobridge,2013-09-23 15:20:00,
2013-09-23 09:25:00,57.7,37.0,29.79,SSW,209,0.9,2.9,46,0.00,,,0.30,meteobridge,2013-09-23 15:25:00,
2013-09-23 09:30:00,57.6,35.8,29.79,West,259,0.0,2.0,44,0.00,,,0.30,meteobridge,2013-09-23 15:30:00,
2013-09-23 09:35:00,57.6,36.3,29.79,SSE,168,0.0,0.9,45,0.00,,,0.30,meteobridge,2013-09-23 15:35:00,
2013-09-23 09:40:00,57.9,36.1,29.80,South,175,0.9,2.0,44,0.00,,,0.30,meteobridge,2013-09-23 15:40:00,
2013-09-23 09:45:00,57.9,37.8,29.80,South,178,0.9,2.0,47,0.00,,,0.30,meteobridge,2013-09-23 15:45:00,
2013-09-23 09:50:00,59.0,38.3,29.80,SSW,213,2.0,2.9,46,0.00,,,0.30,meteobridge,2013-09-23 15:50:00,
2013-09-23 09:56:00,59.7,39.4,29.80,WSW,249,0.0,0.9,47,0.00,,,0.30,meteobridge,2013-09-23 15:56:00,
2013-09-23 10:01:00,59.7,39.4,29.80,SW,234,0.0,2.0,47,0.00,,,0.30,meteobridge,2013-09-23 16:01:00,
2013-09-23 10:06:00,59.5,37.0,29.81,WNW,293,0.0,2.0,43,0.00,,,0.30,meteobridge,2013-09-23 16:06:00,
2013-09-23 10:11:00,59.7,36.0,29.80,North,9,0.9,2.9,41,0.00,,,0.30,meteobridge,2013-09-23 16:11:00,
2013-09-23 10:16:00,60.3,38.3,29.80,North,9,0.9,0.9,44,0.00,,,0.30,meteobridge,2013-09-23 16:16:00,
2013-09-23 10:22:00,60.4,39.0,29.80,SW,230,0.0,2.0,45,0.00,,,0.30,meteobridge,2013-09-23 16:22:00,
2013-09-23 10:27:00,61.0,38.8,29.80,South,188,2.0,2.9,44,0.00,,,0.30,meteobridge,2013-09-23 16:27:00,
2013-09-23 10:32:00,60.6,37.4,29.80,SSW,211,2.0,2.9,42,0.00,,,0.30,meteobridge,2013-09-23 16:32:00,
2013-09-23 10:37:00,61.2,39.0,29.80,SSW,195,0.0,0.0,44,0.00,,,0.30,meteobridge,2013-09-23 16:37:00,
2013-09-23 10:42:00,62.4,39.0,29.81,WSW,238,0.9,2.9,42,0.00,,,0.30,meteobridge,2013-09-23 16:42:00,
2013-09-23 10:47:00,62.4,37.8,29.81,SW,231,2.9,2.9,40,0.00,,,0.30,meteobridge,2013-09-23 16:47:00,
2013-09-23 10:52:00,63.0,38.3,29.81,North,0,0.0,4.0,40,0.00,,,0.30,meteobridge,2013-09-23 16:52:00,
2013-09-23 10:57:00,63.0,37.6,29.81,NW,304,0.9,2.0,39,0.00,,,0.30,meteobridge,2013-09-23 16:57:00,
2013-09-23 11:02:00,63.0,37.6,29.81,SSW,201,0.0,0.9,39,0.00,,,0.30,meteobridge,2013-09-23 17:02:00,
2013-09-23 11:07:00,63.9,38.5,29.81,NNW,335,2.0,6.0,39,0.00,,,0.30,meteobridge,2013-09-23 17:07:00,
2013-09-23 11:12:00,64.4,40.1,29.81,North,351,2.9,2.9,41,0.00,,,0.30,meteobridge,2013-09-23 17:12:00,
2013-09-23 11:18:00,64.4,40.1,29.81,NW,314,0.9,2.0,41,0.00,,,0.30,meteobridge,2013-09-23 17:18:00,
2013-09-23 11:23:00,64.8,38.5,29.81,WSW,242,0.0,6.0,38,0.00,,,0.30,meteobridge,2013-09-23 17:23:00,
2013-09-23 11:28:00,64.8,39.9,29.81,WNW,298,0.9,4.9,40,0.00,,,0.30,meteobridge,2013-09-23 17:28:00,
2013-09-23 11:33:00,64.9,39.4,29.81,North,5,0.0,4.9,39,0.00,,,0.30,meteobridge,2013-09-23 17:33:00,
2013-09-23 11:38:00,66.2,39.9,29.81,SW,234,0.9,2.9,38,0.00,,,0.30,meteobridge,2013-09-23 17:38:00,
2013-09-23 11:43:00,66.4,39.9,29.80,NW,307,2.0,2.0,38,0.00,,,0.30,meteobridge,2013-09-23 17:43:00,
2013-09-23 11:48:00,66.0,38.3,29.81,WNW,284,2.0,6.0,36,0.00,,,0.30,meteobridge,2013-09-23 17:48:00,
2013-09-23 11:53:00,66.4,37.9,29.80,NNW,341,2.0,4.0,35,0.00,,,0.30,meteobridge,2013-09-23 17:53:00,
2013-09-23 11:58:00,66.7,39.6,29.81,NW,315,4.0,4.0,37,0.00,,,0.30,meteobridge,2013-09-23 17:58:00,
2013-09-23 12:03:00,67.1,40.6,29.80,NW,318,0.9,4.0,38,0.00,,,0.30,meteobridge,2013-09-23 18:03:00,
2013-09-23 12:08:00,67.5,39.6,29.80,NW,317,4.0,8.9,36,0.00,,,0.30,meteobridge,2013-09-23 18:08:00,
2013-09-23 12:13:00,68.0,40.1,29.80,NNW,328,0.9,6.0,36,0.00,,,0.30,meteobridge,2013-09-23 18:13:00,
2013-09-23 12:18:00,68.4,38.8,29.80,NW,323,0.9,8.1,34,0.00,,,0.30,meteobridge,2013-09-23 18:18:00,
2013-09-23 12:23:00,68.0,39.4,29.80,NNW,331,2.0,4.9,35,0.00,,,0.30,meteobridge,2013-09-23 18:23:00,
2013-09-23 12:28:00,68.0,37.8,29.80,NNW,333,4.0,8.1,33,0.00,,,0.30,meteobridge,2013-09-23 18:28:00,
2013-09-23 12:33:00,68.4,38.1,29.80,WNW,298,4.0,6.9,33,0.00,,,0.30,meteobridge,2013-09-23 18:33:00,
2013-09-23 12:38:00,68.4,39.6,29.80,NW,317,2.0,11.0,35,0.00,,,0.30,meteobridge,2013-09-23 18:38:00,
2013-09-23 12:44:00,68.5,39.0,29.80,WNW,301,0.0,4.9,34,0.00,,,0.30,meteobridge,2013-09-23 18:44:00,
2013-09-23 12:49:00,68.7,39.2,29.80,NNW,334,2.9,6.0,34,0.00,,,0.30,meteobridge,2013-09-23 18:49:00,
2013-09-23 12:54:00,69.1,38.8,29.80,NNW,342,4.9,10.1,33,0.00,,,0.30,meteobridge,2013-09-23 18:54:00,
2013-09-23 12:59:00,69.4,38.3,29.80,NW,318,4.0,6.9,32,0.00,,,0.30,meteobridge,2013-09-23 18:59:00,
2013-09-23 13:04:00,69.6,39.2,29.80,NNW,328,0.9,4.9,33,0.00,,,0.30,meteobridge,2013-09-23 19:04:00,
2013-09-23 13:09:00,70.2,38.1,29.80,NW,315,2.0,4.9,31,0.00,,,0.30,meteobridge,2013-09-23 19:09:00,
2013-09-23 13:14:00,70.5,37.6,29.80,NW,323,4.0,4.0,30,0.00,,,0.30,meteobridge,2013-09-23 19:14:00,
2013-09-23 13:19:00,70.3,36.5,29.80,NW,315,2.9,8.1,29,0.00,,,0.30,meteobridge,2013-09-23 19:19:00,
2013-09-23 13:24:00,70.5,39.2,29.80,North,5,8.1,8.1,32,0.00,,,0.30,meteobridge,2013-09-23 19:24:00,
2013-09-23 13:29:00,70.9,37.0,29.80,NW,319,2.0,8.1,29,0.00,,,0.30,meteobridge,2013-09-23 19:29:00,
2013-09-23 13:34:00,70.7,36.0,29.80,NW,306,6.0,6.9,28,0.00,,,0.30,meteobridge,2013-09-23 19:34:00,
2013-09-23 13:39:00,70.7,38.7,29.79,NW,321,4.0,6.0,31,0.00,,,0.30,meteobridge,2013-09-23 19:39:00,
2013-09-23 13:44:00,70.5,35.8,29.80,WNW,294,0.9,6.9,28,0.00,,,0.30,meteobridge,2013-09-23 19:44:00,
2013-09-23 13:49:00,70.9,37.0,29.79,NW,311,0.0,4.9,29,0.00,,,0.30,meteobridge,2013-09-23 19:49:00,
2013-09-23 13:54:00,71.1,37.2,29.79,NW,320,4.0,8.1,29,0.00,,,0.30,meteobridge,2013-09-23 19:54:00,
2013-09-23 13:59:00,71.6,37.6,29.80,NNW,338,4.0,8.9,29,0.00,,,0.30,meteobridge,2013-09-23 19:59:00,
2013-09-23 14:04:00,71.4,36.7,29.79,NW,304,2.0,6.0,28,0.00,,,0.30,meteobridge,2013-09-23 20:04:00,
2013-09-23 14:09:00,71.2,38.3,29.80,NNW,338,2.9,8.1,30,0.00,,,0.30,meteobridge,2013-09-23 20:09:00,
2013-09-23 14:14:00,71.2,38.3,29.80,NNW,343,8.1,8.1,30,0.00,,,0.30,meteobridge,2013-09-23 20:14:00,
2013-09-23 14:19:00,72.0,37.0,29.79,NW,315,0.9,4.9,28,0.00,,,0.30,meteobridge,2013-09-23 20:19:00,
2013-09-23 14:24:00,72.1,36.3,29.80,WNW,290,2.9,8.1,27,0.00,,,0.30,meteobridge,2013-09-23 20:24:00,
2013-09-23 14:29:00,71.4,34.7,29.80,NNW,338,6.9,8.9,26,0.00,,,0.30,meteobridge,2013-09-23 20:29:00,
2013-09-23 14:34:00,72.0,35.2,29.80,NW,318,2.9,6.0,26,0.00,,,0.30,meteobridge,2013-09-23 20:34:00,
2013-09-23 14:39:00,71.8,35.1,29.80,SW,217,4.0,4.9,26,0.00,,,0.30,meteobridge,2013-09-23 20:39:00,
2013-09-23 14:44:00,72.1,35.4,29.80,WNW,287,2.9,8.9,26,0.00,,,0.30,meteobridge,2013-09-23 20:44:00,
2013-09-23 14:49:00,72.3,36.5,29.80,NW,312,4.0,15.0,27,0.00,,,0.30,meteobridge,2013-09-23 20:49:00,
2013-09-23 14:54:00,72.9,36.9,29.80,NW,323,4.9,12.1,27,0.00,,,0.30,meteobridge,2013-09-23 20:54:00,
2013-09-23 14:59:00,72.7,36.9,29.80,NW,312,2.9,6.9,27,0.00,,,0.30,meteobridge,2013-09-23 20:59:00,
2013-09-23 15:04:00,72.7,35.8,29.80,NNW,334,4.9,11.0,26,0.00,,,0.30,meteobridge,2013-09-23 21:04:00,
2013-09-23 15:09:00,72.9,36.0,29.80,North,11,8.9,11.0,26,0.00,,,0.30,meteobridge,2013-09-23 21:09:00,
2013-09-23 15:14:00,73.2,36.3,29.80,NW,305,2.9,10.1,26,0.00,,,0.30,meteobridge,2013-09-23 21:14:00,
2013-09-23 15:19:00,73.6,35.6,29.80,NNW,333,4.0,6.9,25,0.00,,,0.30,meteobridge,2013-09-23 21:19:00,
2013-09-23 15:24:00,73.4,35.4,29.80,NNW,337,4.9,4.9,25,0.00,,,0.30,meteobridge,2013-09-23 21:24:00,
2013-09-23 15:29:00,73.2,35.2,29.80,NNW,340,11.0,11.0,25,0.00,,,0.30,meteobridge,2013-09-23 21:29:00,
2013-09-23 15:34:00,73.0,34.2,29.80,NW,320,6.9,6.9,24,0.00,,,0.30,meteobridge,2013-09-23 21:34:00,
2013-09-23 15:39:00,73.0,34.2,29.80,NNW,328,2.0,6.9,24,0.00,,,0.30,meteobridge,2013-09-23 21:39:00,
2013-09-23 15:44:00,73.0,33.1,29.80,NNW,329,4.0,11.0,23,0.00,,,0.30,meteobridge,2013-09-23 21:44:00,
2013-09-23 15:49:00,72.9,34.0,29.80,WNW,288,4.0,6.0,24,0.00,,,0.30,meteobridge,2013-09-23 21:49:00,
2013-09-23 15:54:00,72.7,34.9,29.80,NW,304,2.9,6.0,25,0.00,,,0.30,meteobridge,2013-09-23 21:54:00,
2013-09-23 15:59:00,72.5,33.6,29.80,NW,304,4.9,10.1,24,0.00,,,0.30,meteobridge,2013-09-23 21:59:00,
2013-09-23 16:04:00,72.9,34.0,29.80,North,355,6.0,6.9,24,0.00,,,0.30,meteobridge,2013-09-23 22:04:00,
2013-09-23 16:09:00,72.7,33.8,29.80,NNW,328,2.9,6.0,24,0.00,,,0.30,meteobridge,2013-09-23 22:09:00,